sensor_id;sensor_type;location;lat;lon;timestamp;pressure;altitude;pressure_sealevel;temperature;humidity
11971;BME280;6045;42.682;23.294;2023-05-15T00:00:24;94628.81;;;11.95;99.48
11971;BME280;6045;42.682;23.294;2023-05-15T00:02:51;94632.56;;;11.94;99.93
11971;BME280;6045;42.682;23.294;2023-05-15T00:05:20;94642.31;;;12.00;99.75
11971;BME280;6045;42.682;23.294;2023-05-15T00:07:47;94617.94;;;12.01;99.32
11971;BME280;6045;42.682;23.294;2023-05-15T00:10:14;94614.44;;;12.12;98.78
11971;BME280;6045;42.682;23.294;2023-05-15T00:12:40;94632.69;;;12.15;98.71
11971;BME280;6045;42.682;23.294;2023-05-15T00:15:08;94642.38;;;12.16;98.74
11971;BME280;6045;42.682;23.294;2023-05-15T00:17:35;94667.44;;;12.10;98.79
11971;BME280;6045;42.682;23.294;2023-05-15T00:20:02;94668.03;;;12.12;98.94
11971;BME280;6045;42.682;23.294;2023-05-15T00:22:30;94668.13;;;12.17;98.66
11971;BME280;6045;42.682;23.294;2023-05-15T00:24:57;94662.84;;;12.22;98.36
11971;BME280;6045;42.682;23.294;2023-05-15T00:27:24;94651.34;;;12.22;98.13
11971;BME280;6045;42.682;23.294;2023-05-15T00:29:51;94644.69;;;12.24;97.81
11971;BME280;6045;42.682;23.294;2023-05-15T00:32:17;94647.59;;;12.23;97.63
11971;BME280;6045;42.682;23.294;2023-05-15T00:34:44;94667.63;;;12.20;97.17
11971;BME280;6045;42.682;23.294;2023-05-15T00:37:11;94664.44;;;11.95;97.84
11971;BME280;6045;42.682;23.294;2023-05-15T00:39:39;94664.09;;;12.03;97.79
11971;BME280;6045;42.682;23.294;2023-05-15T00:42:06;94643.81;;;12.07;97.63
11971;BME280;6045;42.682;23.294;2023-05-15T00:44:35;94632.63;;;12.10;97.19
11971;BME280;6045;42.682;23.294;2023-05-15T00:47:02;94664.56;;;12.00;97.07
11971;BME280;6045;42.682;23.294;2023-05-15T00:49:30;94669.69;;;11.90;97.55
11971;BME280;6045;42.682;23.294;2023-05-15T00:52:00;94662.13;;;11.87;97.80
11971;BME280;6045;42.682;23.294;2023-05-15T00:54:28;94664.81;;;11.87;98.17
11971;BME280;6045;42.682;23.294;2023-05-15T00:56:58;94662.84;;;11.83;98.19
11971;BME280;6045;42.682;23.294;2023-05-15T00:59:27;94650.16;;;11.78;98.71
11971;BME280;6045;42.682;23.294;2023-05-15T01:01:55;94657.63;;;11.76;98.66
11971;BME280;6045;42.682;23.294;2023-05-15T01:04:22;94666.81;;;11.80;99.10
11971;BME280;6045;42.682;23.294;2023-05-15T01:06:49;94659.94;;;11.84;99.28
11971;BME280;6045;42.682;23.294;2023-05-15T01:09:18;94658.41;;;11.88;98.97
11971;BME280;6045;42.682;23.294;2023-05-15T01:11:46;94659.22;;;11.89;98.37
11971;BME280;6045;42.682;23.294;2023-05-15T01:14:17;94656.00;;;11.75;98.16
11971;BME280;6045;42.682;23.294;2023-05-15T01:16:44;94645.88;;;11.77;98.83
11971;BME280;6045;42.682;23.294;2023-05-15T01:19:10;94637.69;;;11.84;98.87
11971;BME280;6045;42.682;23.294;2023-05-15T01:24:55;94635.94;;;11.89;97.61
11971;BME280;6045;42.682;23.294;2023-05-15T01:27:29;94621.84;;;11.94;97.13
11971;BME280;6045;42.682;23.294;2023-05-15T01:30:05;94616.00;;;11.97;96.92
11971;BME280;6045;42.682;23.294;2023-05-15T01:32:45;94617.28;;;11.94;96.51
11971;BME280;6045;42.682;23.294;2023-05-15T01:35:15;94626.75;;;11.85;96.68
11971;BME280;6045;42.682;23.294;2023-05-15T01:37:48;94621.28;;;11.80;96.99
11971;BME280;6045;42.682;23.294;2023-05-15T01:40:17;94619.19;;;11.82;97.14
11971;BME280;6045;42.682;23.294;2023-05-15T01:42:50;94616.75;;;11.81;96.85
11971;BME280;6045;42.682;23.294;2023-05-15T01:45:20;94605.13;;;11.75;96.85
11971;BME280;6045;42.682;23.294;2023-05-15T01:47:49;94608.97;;;11.79;96.11
11971;BME280;6045;42.682;23.294;2023-05-15T01:50:19;94622.50;;;11.73;96.01
11971;BME280;6045;42.682;23.294;2023-05-15T01:52:48;94618.03;;;11.66;96.44
11971;BME280;6045;42.682;23.294;2023-05-15T01:55:17;94609.19;;;11.66;96.80
11971;BME280;6045;42.682;23.294;2023-05-15T01:57:47;94609.81;;;11.68;97.22
11971;BME280;6045;42.682;23.294;2023-05-15T02:00:16;94618.16;;;11.72;96.70
11971;BME280;6045;42.682;23.294;2023-05-15T02:02:43;94615.84;;;11.75;96.08
11971;BME280;6045;42.682;23.294;2023-05-15T02:05:11;94629.69;;;11.72;96.08
11971;BME280;6045;42.682;23.294;2023-05-15T02:07:39;94623.19;;;11.68;95.70
11971;BME280;6045;42.682;23.294;2023-05-15T02:10:08;94626.06;;;11.66;96.29
11971;BME280;6045;42.682;23.294;2023-05-15T02:12:37;94631.22;;;11.68;96.86
11971;BME280;6045;42.682;23.294;2023-05-15T02:15:08;94620.03;;;11.71;97.08
11971;BME280;6045;42.682;23.294;2023-05-15T02:17:48;94613.84;;;11.71;96.43
11971;BME280;6045;42.682;23.294;2023-05-15T02:20:18;94609.88;;;11.73;95.88
11971;BME280;6045;42.682;23.294;2023-05-15T02:22:45;94621.09;;;11.70;96.04
11971;BME280;6045;42.682;23.294;2023-05-15T02:25:12;94613.75;;;11.65;96.17
11971;BME280;6045;42.682;23.294;2023-05-15T02:27:46;94603.53;;;11.51;97.04
11971;BME280;6045;42.682;23.294;2023-05-15T02:30:31;94600.38;;;11.54;98.20
11971;BME280;6045;42.682;23.294;2023-05-15T02:33:06;94592.94;;;11.56;98.18
11971;BME280;6045;42.682;23.294;2023-05-15T02:35:41;94586.50;;;11.57;98.36
11971;BME280;6045;42.682;23.294;2023-05-15T02:38:15;94584.41;;;11.59;98.48
11971;BME280;6045;42.682;23.294;2023-05-15T02:40:43;94586.03;;;11.60;97.73
11971;BME280;6045;42.682;23.294;2023-05-15T02:43:12;94604.78;;;11.60;97.96
11971;BME280;6045;42.682;23.294;2023-05-15T02:45:41;94608.50;;;11.59;98.07
11971;BME280;6045;42.682;23.294;2023-05-15T02:48:10;94608.88;;;11.51;98.43
11971;BME280;6045;42.682;23.294;2023-05-15T02:50:38;94603.53;;;11.51;99.15
11971;BME280;6045;42.682;23.294;2023-05-15T02:53:05;94587.78;;;11.54;99.27
11971;BME280;6045;42.682;23.294;2023-05-15T02:55:34;94588.25;;;11.63;99.78
11971;BME280;6045;42.682;23.294;2023-05-15T02:58:01;94578.59;;;11.62;99.23
11971;BME280;6045;42.682;23.294;2023-05-15T03:00:29;94579.16;;;11.64;99.23
11971;BME280;6045;42.682;23.294;2023-05-15T03:02:57;94587.06;;;11.71;99.25
11971;BME280;6045;42.682;23.294;2023-05-15T03:05:23;94591.75;;;11.75;98.57
11971;BME280;6045;42.682;23.294;2023-05-15T03:07:50;94593.59;;;11.75;98.89
11971;BME280;6045;42.682;23.294;2023-05-15T03:10:17;94603.03;;;11.77;98.45
11971;BME280;6045;42.682;23.294;2023-05-15T03:12:45;94614.41;;;11.84;97.82
11971;BME280;6045;42.682;23.294;2023-05-15T03:15:12;94614.53;;;11.89;97.27
11971;BME280;6045;42.682;23.294;2023-05-15T03:17:39;94596.47;;;11.85;97.23
11971;BME280;6045;42.682;23.294;2023-05-15T03:20:07;94604.38;;;11.91;97.03
11971;BME280;6045;42.682;23.294;2023-05-15T03:22:35;94598.22;;;11.91;97.25
11971;BME280;6045;42.682;23.294;2023-05-15T03:25:02;94602.84;;;11.95;97.55
11971;BME280;6045;42.682;23.294;2023-05-15T03:27:29;94607.38;;;11.95;96.99
11971;BME280;6045;42.682;23.294;2023-05-15T03:29:56;94598.06;;;11.97;97.40
11971;BME280;6045;42.682;23.294;2023-05-15T03:32:23;94594.66;;;12.02;97.26
11971;BME280;6045;42.682;23.294;2023-05-15T03:34:50;94592.00;;;12.02;96.69
11971;BME280;6045;42.682;23.294;2023-05-15T03:37:18;94582.00;;;11.97;97.15
11971;BME280;6045;42.682;23.294;2023-05-15T03:39:45;94575.09;;;12.01;97.10
11971;BME280;6045;42.682;23.294;2023-05-15T03:42:21;94579.50;;;12.07;96.94
11971;BME280;6045;42.682;23.294;2023-05-15T03:44:49;94585.81;;;12.01;96.73
11971;BME280;6045;42.682;23.294;2023-05-15T03:47:16;94580.22;;;12.03;97.25
11971;BME280;6045;42.682;23.294;2023-05-15T03:49:44;94582.75;;;12.09;97.07
11971;BME280;6045;42.682;23.294;2023-05-15T03:52:11;94597.84;;;12.15;96.98
11971;BME280;6045;42.682;23.294;2023-05-15T03:54:42;94596.34;;;12.19;96.29
11971;BME280;6045;42.682;23.294;2023-05-15T03:57:08;94587.03;;;12.22;96.85
11971;BME280;6045;42.682;23.294;2023-05-15T03:59:35;94594.34;;;12.26;96.70
11971;BME280;6045;42.682;23.294;2023-05-15T04:02:02;94592.47;;;12.27;96.48
11971;BME280;6045;42.682;23.294;2023-05-15T04:04:29;94594.44;;;12.31;96.28
11971;BME280;6045;42.682;23.294;2023-05-15T04:06:55;94592.59;;;12.98;100.00
11971;BME280;6045;42.682;23.294;2023-05-15T04:09:22;94593.78;;;13.41;100.00
11971;BME280;6045;42.682;23.294;2023-05-15T04:11:50;94587.06;;;13.82;100.00
11971;BME280;6045;42.682;23.294;2023-05-15T04:14:17;94598.72;;;13.92;100.00
11971;BME280;6045;42.682;23.294;2023-05-15T04:16:44;94607.09;;;14.17;99.09
11971;BME280;6045;42.682;23.294;2023-05-15T04:19:11;94611.91;;;14.37;94.63
11971;BME280;6045;42.682;23.294;2023-05-15T04:21:37;94617.50;;;14.57;93.70
11971;BME280;6045;42.682;23.294;2023-05-15T04:24:05;94610.09;;;14.69;91.02
11971;BME280;6045;42.682;23.294;2023-05-15T04:26:32;94599.28;;;14.64;86.07
11971;BME280;6045;42.682;23.294;2023-05-15T04:29:01;94607.31;;;14.59;85.09
11971;BME280;6045;42.682;23.294;2023-05-15T04:31:27;94606.63;;;14.47;84.72
11971;BME280;6045;42.682;23.294;2023-05-15T04:33:54;94605.41;;;14.33;85.01
11971;BME280;6045;42.682;23.294;2023-05-15T04:36:21;94592.53;;;14.13;85.13
11971;BME280;6045;42.682;23.294;2023-05-15T04:38:48;94593.53;;;14.07;87.17
11971;BME280;6045;42.682;23.294;2023-05-15T04:41:14;94581.63;;;13.77;86.80
11971;BME280;6045;42.682;23.294;2023-05-15T04:43:42;94564.03;;;13.42;88.07
11971;BME280;6045;42.682;23.294;2023-05-15T04:46:10;94570.72;;;13.23;89.14
11971;BME280;6045;42.682;23.294;2023-05-15T04:48:37;94591.38;;;13.23;89.99
11971;BME280;6045;42.682;23.294;2023-05-15T04:51:03;94596.19;;;13.21;91.66
11971;BME280;6045;42.682;23.294;2023-05-15T04:53:31;94593.81;;;13.24;91.83
11971;BME280;6045;42.682;23.294;2023-05-15T04:55:57;94589.25;;;13.25;92.84
11971;BME280;6045;42.682;23.294;2023-05-15T04:58:24;94596.41;;;13.19;92.30
11971;BME280;6045;42.682;23.294;2023-05-15T05:00:51;94593.91;;;13.13;92.59
11971;BME280;6045;42.682;23.294;2023-05-15T05:03:19;94579.38;;;13.09;93.25
11971;BME280;6045;42.682;23.294;2023-05-15T05:05:46;94565.13;;;12.91;93.59
11971;BME280;6045;42.682;23.294;2023-05-15T05:08:12;94564.00;;;12.87;93.77
11971;BME280;6045;42.682;23.294;2023-05-15T05:10:39;94567.63;;;12.81;93.61
11971;BME280;6045;42.682;23.294;2023-05-15T05:13:06;94568.63;;;12.75;94.13
11971;BME280;6045;42.682;23.294;2023-05-15T05:15:33;94568.22;;;12.83;94.37
11971;BME280;6045;42.682;23.294;2023-05-15T05:17:59;94576.50;;;12.82;93.80
11971;BME280;6045;42.682;23.294;2023-05-15T05:20:28;94570.66;;;12.85;94.41
11971;BME280;6045;42.682;23.294;2023-05-15T05:22:59;94565.28;;;12.85;94.90
11971;BME280;6045;42.682;23.294;2023-05-15T05:25:26;94569.19;;;12.94;95.41
11971;BME280;6045;42.682;23.294;2023-05-15T05:27:52;94579.91;;;12.94;95.77
11971;BME280;6045;42.682;23.294;2023-05-15T05:30:19;94582.34;;;12.95;95.47
11971;BME280;6045;42.682;23.294;2023-05-15T05:32:46;94570.81;;;12.95;96.53
11971;BME280;6045;42.682;23.294;2023-05-15T05:35:13;94575.53;;;13.04;96.12
11971;BME280;6045;42.682;23.294;2023-05-15T05:37:41;94570.44;;;13.41;100.00
11971;BME280;6045;42.682;23.294;2023-05-15T05:40:09;94560.75;;;14.32;100.00
11971;BME280;6045;42.682;23.294;2023-05-15T05:42:35;94571.25;;;14.92;100.00
11971;BME280;6045;42.682;23.294;2023-05-15T05:45:08;94574.66;;;15.51;100.00
11971;BME280;6045;42.682;23.294;2023-05-15T05:47:35;94564.69;;;15.51;88.65
11971;BME280;6045;42.682;23.294;2023-05-15T05:50:02;94572.94;;;15.40;85.55
11971;BME280;6045;42.682;23.294;2023-05-15T05:52:29;94571.81;;;15.31;85.67
11971;BME280;6045;42.682;23.294;2023-05-15T05:54:57;94574.22;;;15.32;84.20
11971;BME280;6045;42.682;23.294;2023-05-15T05:57:24;94579.41;;;15.44;83.28
11971;BME280;6045;42.682;23.294;2023-05-15T06:00:03;94579.63;;;15.32;83.28
11971;BME280;6045;42.682;23.294;2023-05-15T06:02:33;94579.81;;;15.21;83.52
11971;BME280;6045;42.682;23.294;2023-05-15T06:05:00;94579.53;;;15.22;83.27
11971;BME280;6045;42.682;23.294;2023-05-15T06:07:26;94578.13;;;15.15;82.79
11971;BME280;6045;42.682;23.294;2023-05-15T06:09:53;94579.97;;;15.04;83.78
11971;BME280;6045;42.682;23.294;2023-05-15T06:12:22;94582.16;;;14.75;85.40
11971;BME280;6045;42.682;23.294;2023-05-15T06:14:49;94563.72;;;14.57;84.94
11971;BME280;6045;42.682;23.294;2023-05-15T06:17:16;94566.28;;;14.47;84.98
11971;BME280;6045;42.682;23.294;2023-05-15T06:19:42;94563.34;;;14.49;85.19
11971;BME280;6045;42.682;23.294;2023-05-15T06:22:09;94561.19;;;14.46;85.60
11971;BME280;6045;42.682;23.294;2023-05-15T06:24:36;94571.38;;;14.75;92.89
11971;BME280;6045;42.682;23.294;2023-05-15T06:27:03;94577.91;;;15.16;91.97
11971;BME280;6045;42.682;23.294;2023-05-15T06:29:31;94565.31;;;15.27;87.04
11971;BME280;6045;42.682;23.294;2023-05-15T06:31:58;94569.22;;;15.46;84.96
11971;BME280;6045;42.682;23.294;2023-05-15T06:34:24;94569.28;;;15.56;85.58
11971;BME280;6045;42.682;23.294;2023-05-15T06:36:51;94574.75;;;15.76;86.05
11971;BME280;6045;42.682;23.294;2023-05-15T06:39:18;94572.97;;;15.92;85.68
11971;BME280;6045;42.682;23.294;2023-05-15T06:41:45;94579.47;;;16.06;84.59
11971;BME280;6045;42.682;23.294;2023-05-15T06:44:11;94591.13;;;16.21;80.15
11971;BME280;6045;42.682;23.294;2023-05-15T06:46:39;94586.06;;;16.50;78.09
11971;BME280;6045;42.682;23.294;2023-05-15T06:49:06;94584.25;;;16.71;77.47
11971;BME280;6045;42.682;23.294;2023-05-15T06:51:33;94586.81;;;16.15;79.93
11971;BME280;6045;42.682;23.294;2023-05-15T06:54:00;94591.88;;;16.07;79.47
11971;BME280;6045;42.682;23.294;2023-05-15T06:56:26;94588.50;;;16.41;79.60
11971;BME280;6045;42.682;23.294;2023-05-15T06:58:53;94596.91;;;16.70;76.58
11971;BME280;6045;42.682;23.294;2023-05-15T07:01:20;94593.44;;;16.90;75.53
11971;BME280;6045;42.682;23.294;2023-05-15T07:03:49;94582.09;;;17.13;75.78
11971;BME280;6045;42.682;23.294;2023-05-15T07:06:15;94591.53;;;17.05;73.78
11971;BME280;6045;42.682;23.294;2023-05-15T07:08:42;94576.41;;;16.79;74.34
11971;BME280;6045;42.682;23.294;2023-05-15T07:11:09;94574.78;;;16.68;75.52
11971;BME280;6045;42.682;23.294;2023-05-15T07:13:36;94580.47;;;16.72;76.07
11971;BME280;6045;42.682;23.294;2023-05-15T07:16:03;94574.81;;;16.73;75.12
11971;BME280;6045;42.682;23.294;2023-05-15T07:18:30;94572.63;;;16.70;76.86
11971;BME280;6045;42.682;23.294;2023-05-15T07:20:58;94581.28;;;16.67;76.99
11971;BME280;6045;42.682;23.294;2023-05-15T07:23:24;94579.38;;;16.58;75.48
11971;BME280;6045;42.682;23.294;2023-05-15T07:25:52;94591.75;;;16.54;76.05
11971;BME280;6045;42.682;23.294;2023-05-15T07:28:19;94594.13;;;16.40;76.54
11971;BME280;6045;42.682;23.294;2023-05-15T07:30:45;94589.53;;;16.30;77.99
11971;BME280;6045;42.682;23.294;2023-05-15T07:33:12;94591.59;;;15.98;76.65
11971;BME280;6045;42.682;23.294;2023-05-15T07:35:39;94580.50;;;15.95;78.14
11971;BME280;6045;42.682;23.294;2023-05-15T07:38:07;94575.69;;;16.02;77.25
11971;BME280;6045;42.682;23.294;2023-05-15T07:40:34;94584.56;;;15.97;77.32
11971;BME280;6045;42.682;23.294;2023-05-15T07:43:01;94586.72;;;15.95;77.91
11971;BME280;6045;42.682;23.294;2023-05-15T07:45:27;94579.59;;;15.69;78.48
11971;BME280;6045;42.682;23.294;2023-05-15T07:47:54;94579.09;;;15.77;83.59
11971;BME280;6045;42.682;23.294;2023-05-15T07:50:23;94574.91;;;16.11;84.64
11971;BME280;6045;42.682;23.294;2023-05-15T07:52:49;94570.38;;;16.27;83.61
11971;BME280;6045;42.682;23.294;2023-05-15T07:55:18;94586.59;;;16.32;79.53
11971;BME280;6045;42.682;23.294;2023-05-15T07:57:44;94600.28;;;16.20;78.05
11971;BME280;6045;42.682;23.294;2023-05-15T08:00:13;94593.97;;;15.85;78.02
11971;BME280;6045;42.682;23.294;2023-05-15T08:02:40;94595.25;;;15.77;78.58
11971;BME280;6045;42.682;23.294;2023-05-15T08:05:10;94607.06;;;15.71;79.28
11971;BME280;6045;42.682;23.294;2023-05-15T08:07:37;94612.47;;;15.71;79.63
11971;BME280;6045;42.682;23.294;2023-05-15T08:10:04;94605.47;;;15.70;79.03
11971;BME280;6045;42.682;23.294;2023-05-15T08:12:33;94598.97;;;15.71;80.13
11971;BME280;6045;42.682;23.294;2023-05-15T08:14:59;94606.16;;;15.50;80.48
11971;BME280;6045;42.682;23.294;2023-05-15T08:17:26;94605.72;;;15.63;80.72
11971;BME280;6045;42.682;23.294;2023-05-15T08:19:53;94605.91;;;15.57;80.71
11971;BME280;6045;42.682;23.294;2023-05-15T08:22:21;94595.41;;;15.55;80.63
11971;BME280;6045;42.682;23.294;2023-05-15T08:24:47;94605.34;;;15.50;80.53
11971;BME280;6045;42.682;23.294;2023-05-15T08:27:14;94610.19;;;15.48;80.69
11971;BME280;6045;42.682;23.294;2023-05-15T08:29:42;94607.59;;;15.63;81.11
11971;BME280;6045;42.682;23.294;2023-05-15T08:32:09;94611.09;;;15.63;81.15
11971;BME280;6045;42.682;23.294;2023-05-15T08:34:36;94593.34;;;15.72;81.12
11971;BME280;6045;42.682;23.294;2023-05-15T08:37:03;94597.94;;;15.72;80.04
11971;BME280;6045;42.682;23.294;2023-05-15T08:39:30;94601.69;;;15.71;80.76
11971;BME280;6045;42.682;23.294;2023-05-15T08:42:02;94591.00;;;15.91;79.90
11971;BME280;6045;42.682;23.294;2023-05-15T08:44:31;94587.59;;;16.16;78.35
11971;BME280;6045;42.682;23.294;2023-05-15T08:47:00;94587.31;;;16.12;77.83
11971;BME280;6045;42.682;23.294;2023-05-15T08:49:34;94585.72;;;16.21;77.98
11971;BME280;6045;42.682;23.294;2023-05-15T08:52:02;94596.22;;;16.13;77.67
11971;BME280;6045;42.682;23.294;2023-05-15T08:54:30;94580.78;;;15.93;78.12
11971;BME280;6045;42.682;23.294;2023-05-15T08:56:57;94575.63;;;15.87;78.85
11971;BME280;6045;42.682;23.294;2023-05-15T08:59:24;94587.19;;;15.82;79.07
11971;BME280;6045;42.682;23.294;2023-05-15T09:01:52;94571.22;;;15.65;80.39
11971;BME280;6045;42.682;23.294;2023-05-15T09:04:20;94563.34;;;15.54;80.04
11971;BME280;6045;42.682;23.294;2023-05-15T09:06:47;94562.72;;;15.42;80.58
11971;BME280;6045;42.682;23.294;2023-05-15T09:09:14;94565.91;;;15.39;81.64
11971;BME280;6045;42.682;23.294;2023-05-15T09:11:43;94571.69;;;15.47;82.65
11971;BME280;6045;42.682;23.294;2023-05-15T09:14:10;94566.03;;;15.49;82.48
11971;BME280;6045;42.682;23.294;2023-05-15T09:16:37;94565.50;;;15.52;82.92
11971;BME280;6045;42.682;23.294;2023-05-15T09:19:04;94555.97;;;15.39;81.99
11971;BME280;6045;42.682;23.294;2023-05-15T09:21:33;94552.00;;;15.47;83.34
11971;BME280;6045;42.682;23.294;2023-05-15T09:24:17;94565.84;;;15.29;82.23
11971;BME280;6045;42.682;23.294;2023-05-15T09:26:46;94549.75;;;15.39;82.60
11971;BME280;6045;42.682;23.294;2023-05-15T09:29:15;94558.50;;;15.56;82.35
11971;BME280;6045;42.682;23.294;2023-05-15T09:31:45;94560.47;;;15.70;81.81
11971;BME280;6045;42.682;23.294;2023-05-15T09:34:12;94555.91;;;15.76;80.21
11971;BME280;6045;42.682;23.294;2023-05-15T09:36:43;94540.84;;;15.80;79.02
11971;BME280;6045;42.682;23.294;2023-05-15T09:39:10;94524.97;;;15.89;79.00
11971;BME280;6045;42.682;23.294;2023-05-15T09:41:41;94522.56;;;15.97;79.01
11971;BME280;6045;42.682;23.294;2023-05-15T09:44:19;94520.19;;;16.11;78.91
11971;BME280;6045;42.682;23.294;2023-05-15T09:46:50;94522.59;;;16.07;77.71
11971;BME280;6045;42.682;23.294;2023-05-15T09:49:17;94517.97;;;15.93;78.03
11971;BME280;6045;42.682;23.294;2023-05-15T09:51:46;94519.38;;;16.10;78.82
11971;BME280;6045;42.682;23.294;2023-05-15T09:54:18;94518.31;;;16.26;79.55
11971;BME280;6045;42.682;23.294;2023-05-15T09:56:45;94528.03;;;16.37;79.72
11971;BME280;6045;42.682;23.294;2023-05-15T09:59:13;94509.44;;;16.36;79.37
11971;BME280;6045;42.682;23.294;2023-05-15T10:01:44;94510.22;;;16.26;76.88
11971;BME280;6045;42.682;23.294;2023-05-15T10:04:12;94516.72;;;16.35;77.63
11971;BME280;6045;42.682;23.294;2023-05-15T10:06:40;94519.69;;;16.44;77.29
11971;BME280;6045;42.682;23.294;2023-05-15T10:09:08;94519.13;;;16.37;77.49
11971;BME280;6045;42.682;23.294;2023-05-15T10:11:37;94515.09;;;16.44;76.86
11971;BME280;6045;42.682;23.294;2023-05-15T10:14:04;94492.97;;;16.48;76.56
11971;BME280;6045;42.682;23.294;2023-05-15T10:16:34;94506.78;;;16.56;76.59
11971;BME280;6045;42.682;23.294;2023-05-15T10:19:02;94515.69;;;16.62;75.81
11971;BME280;6045;42.682;23.294;2023-05-15T10:21:30;94530.25;;;16.76;75.08
11971;BME280;6045;42.682;23.294;2023-05-15T10:23:58;94522.69;;;16.73;75.30
11971;BME280;6045;42.682;23.294;2023-05-15T10:26:32;94531.88;;;16.82;75.49
11971;BME280;6045;42.682;23.294;2023-05-15T10:29:01;94527.56;;;16.86;76.53
11971;BME280;6045;42.682;23.294;2023-05-15T10:31:30;94534.56;;;16.92;75.48
11971;BME280;6045;42.682;23.294;2023-05-15T10:33:57;94549.44;;;16.99;74.75
11971;BME280;6045;42.682;23.294;2023-05-15T10:36:25;94554.00;;;16.94;73.63
11971;BME280;6045;42.682;23.294;2023-05-15T10:38:52;94546.72;;;16.99;74.01
11971;BME280;6045;42.682;23.294;2023-05-15T10:41:20;94555.91;;;17.03;74.32
11971;BME280;6045;42.682;23.294;2023-05-15T10:43:48;94545.38;;;17.07;75.02
11971;BME280;6045;42.682;23.294;2023-05-15T10:46:18;94546.44;;;17.11;74.47
11971;BME280;6045;42.682;23.294;2023-05-15T10:48:45;94544.53;;;17.27;75.01
11971;BME280;6045;42.682;23.294;2023-05-15T10:51:15;94554.50;;;17.36;73.79
11971;BME280;6045;42.682;23.294;2023-05-15T10:53:42;94541.56;;;17.33;73.68
11971;BME280;6045;42.682;23.294;2023-05-15T10:56:12;94542.63;;;17.32;74.23
11971;BME280;6045;42.682;23.294;2023-05-15T10:58:43;94544.53;;;17.27;73.18
11971;BME280;6045;42.682;23.294;2023-05-15T11:01:25;94534.53;;;17.22;72.75
11971;BME280;6045;42.682;23.294;2023-05-15T11:04:07;94524.03;;;17.10;73.66
11971;BME280;6045;42.682;23.294;2023-05-15T11:06:34;94535.09;;;17.09;74.18
11971;BME280;6045;42.682;23.294;2023-05-15T11:09:35;94533.22;;;16.99;74.51
11971;BME280;6045;42.682;23.294;2023-05-15T11:12:03;94532.41;;;16.89;74.68
11971;BME280;6045;42.682;23.294;2023-05-15T11:14:31;94520.53;;;16.90;75.78
11971;BME280;6045;42.682;23.294;2023-05-15T11:17:01;94529.19;;;17.02;75.41
11971;BME280;6045;42.682;23.294;2023-05-15T11:19:33;94512.16;;;17.06;74.68
11971;BME280;6045;42.682;23.294;2023-05-15T11:22:03;94525.94;;;17.05;74.83
11971;BME280;6045;42.682;23.294;2023-05-15T11:24:51;94536.19;;;17.08;76.81
11971;BME280;6045;42.682;23.294;2023-05-15T11:27:19;94525.91;;;17.15;74.30
11971;BME280;6045;42.682;23.294;2023-05-15T11:30:05;94531.88;;;17.12;73.50
11971;BME280;6045;42.682;23.294;2023-05-15T11:32:56;94534.56;;;17.12;74.36
11971;BME280;6045;42.682;23.294;2023-05-15T11:35:26;94522.63;;;17.38;72.95
11971;BME280;6045;42.682;23.294;2023-05-15T11:37:55;94517.75;;;17.55;73.79
11971;BME280;6045;42.682;23.294;2023-05-15T11:40:24;94517.19;;;17.48;71.46
11971;BME280;6045;42.682;23.294;2023-05-15T11:43:06;94512.31;;;17.60;71.61
11971;BME280;6045;42.682;23.294;2023-05-15T11:45:35;94503.59;;;17.73;71.45
11971;BME280;6045;42.682;23.294;2023-05-15T11:48:05;94502.81;;;17.78;72.09
11971;BME280;6045;42.682;23.294;2023-05-15T11:50:33;94495.56;;;17.63;72.81
11971;BME280;6045;42.682;23.294;2023-05-15T11:53:02;94502.50;;;17.85;72.70
11971;BME280;6045;42.682;23.294;2023-05-15T11:55:30;94501.03;;;18.07;70.75
11971;BME280;6045;42.682;23.294;2023-05-15T11:57:57;94491.25;;;18.11;70.25
11971;BME280;6045;42.682;23.294;2023-05-15T12:00:24;94497.47;;;18.12;70.54
11971;BME280;6045;42.682;23.294;2023-05-15T12:02:51;94494.75;;;18.17;69.87
11971;BME280;6045;42.682;23.294;2023-05-15T12:05:19;94494.16;;;18.25;69.73
11971;BME280;6045;42.682;23.294;2023-05-15T12:07:46;94488.47;;;18.26;69.91
11971;BME280;6045;42.682;23.294;2023-05-15T12:10:13;94493.59;;;18.28;69.80
11971;BME280;6045;42.682;23.294;2023-05-15T12:12:42;94493.09;;;18.21;70.37
11971;BME280;6045;42.682;23.294;2023-05-15T12:15:10;94484.97;;;18.21;70.18
11971;BME280;6045;42.682;23.294;2023-05-15T12:17:37;94498.97;;;18.33;70.78
11971;BME280;6045;42.682;23.294;2023-05-15T12:20:07;94491.38;;;18.35;70.24
11971;BME280;6045;42.682;23.294;2023-05-15T12:22:37;94487.41;;;18.22;69.93
11971;BME280;6045;42.682;23.294;2023-05-15T12:25:05;94470.47;;;18.02;70.19
11971;BME280;6045;42.682;23.294;2023-05-15T12:27:33;94454.50;;;18.10;71.21
11971;BME280;6045;42.682;23.294;2023-05-15T12:30:00;94449.56;;;18.17;70.88
11971;BME280;6045;42.682;23.294;2023-05-15T12:32:30;94436.41;;;18.06;70.05
11971;BME280;6045;42.682;23.294;2023-05-15T12:34:57;94446.00;;;18.27;70.77
11971;BME280;6045;42.682;23.294;2023-05-15T12:37:24;94436.69;;;18.38;69.88
11971;BME280;6045;42.682;23.294;2023-05-15T12:39:55;94426.25;;;18.65;69.39
11971;BME280;6045;42.682;23.294;2023-05-15T12:42:22;94426.50;;;18.92;67.90
11971;BME280;6045;42.682;23.294;2023-05-15T12:44:49;94414.13;;;18.86;67.66
11971;BME280;6045;42.682;23.294;2023-05-15T12:47:21;94403.81;;;18.88;67.29
11971;BME280;6045;42.682;23.294;2023-05-15T12:49:49;94411.28;;;18.96;66.61
11971;BME280;6045;42.682;23.294;2023-05-15T12:52:16;94404.28;;;19.19;67.09
11971;BME280;6045;42.682;23.294;2023-05-15T12:54:43;94412.16;;;19.44;65.95
11971;BME280;6045;42.682;23.294;2023-05-15T12:57:12;94415.13;;;19.66;67.45
11971;BME280;6045;42.682;23.294;2023-05-15T12:59:40;94420.91;;;19.78;65.00
11971;BME280;6045;42.682;23.294;2023-05-15T13:02:11;94419.41;;;20.10;64.31
11971;BME280;6045;42.682;23.294;2023-05-15T13:04:39;94423.84;;;20.24;63.31
11971;BME280;6045;42.682;23.294;2023-05-15T13:07:05;94426.75;;;20.28;62.09
11971;BME280;6045;42.682;23.294;2023-05-15T13:09:32;94418.50;;;20.14;63.59